sensor_id;sensor_type;location;lat;lon;timestamp;pressure;altitude;pressure_sealevel;temperature;humidity
52249;BME280;38541;48.130;8.378;2023-05-11T00:00:35;92572.38;;;9.48;75.59
52249;BME280;38541;48.130;8.378;2023-05-11T00:03:02;92563.72;;;9.47;75.37
52249;BME280;38541;48.130;8.378;2023-05-11T00:05:29;92569.47;;;9.44;75.63
52249;BME280;38541;48.130;8.378;2023-05-11T00:07:55;92562.41;;;9.39;75.41
52249;BME280;38541;48.130;8.378;2023-05-11T00:10:22;92567.66;;;9.39;75.57
52249;BME280;38541;48.130;8.378;2023-05-11T00:12:48;92565.56;;;9.41;75.10
52249;BME280;38541;48.130;8.378;2023-05-11T00:15:15;92568.72;;;9.44;75.38
52249;BME280;38541;48.130;8.378;2023-05-11T00:17:41;92565.81;;;9.45;75.19
52249;BME280;38541;48.130;8.378;2023-05-11T00:20:08;92558.75;;;9.46;75.00
52249;BME280;38541;48.130;8.378;2023-05-11T00:22:35;92566.34;;;9.47;75.02
52249;BME280;38541;48.130;8.378;2023-05-11T00:25:01;92558.75;;;9.40;75.27
52249;BME280;38541;48.130;8.378;2023-05-11T00:27:28;92559.78;;;9.39;75.72
52249;BME280;38541;48.130;8.378;2023-05-11T00:29:55;92556.38;;;9.39;75.29
52249;BME280;38541;48.130;8.378;2023-05-11T00:32:22;92556.88;;;9.36;75.58
52249;BME280;38541;48.130;8.378;2023-05-11T00:34:48;92553.97;;;9.37;75.48
52249;BME280;38541;48.130;8.378;2023-05-11T00:37:14;92544.53;;;9.36;75.98
52249;BME280;38541;48.130;8.378;2023-05-11T00:39:41;92542.44;;;9.33;75.85
52249;BME280;38541;48.130;8.378;2023-05-11T00:42:09;92540.34;;;9.35;75.78
52249;BME280;38541;48.130;8.378;2023-05-11T00:44:36;92539.56;;;9.30;75.46
52249;BME280;38541;48.130;8.378;2023-05-11T00:47:02;92531.97;;;9.28;75.38
52249;BME280;38541;48.130;8.378;2023-05-11T00:49:29;92533.00;;;9.27;75.58
52249;BME280;38541;48.130;8.378;2023-05-11T00:51:56;92534.03;;;9.21;75.39
52249;BME280;38541;48.130;8.378;2023-05-11T00:54:23;92536.66;;;9.21;75.34
52249;BME280;38541;48.130;8.378;2023-05-11T00:56:50;92537.66;;;9.09;75.39
52249;BME280;38541;48.130;8.378;2023-05-11T00:59:17;92539.78;;;9.12;75.78
52249;BME280;38541;48.130;8.378;2023-05-11T01:01:44;92541.88;;;9.16;75.25
52249;BME280;38541;48.130;8.378;2023-05-11T01:04:11;92536.91;;;9.19;75.42
52249;BME280;38541;48.130;8.378;2023-05-11T01:06:46;92530.38;;;9.22;75.53
52249;BME280;38541;48.130;8.378;2023-05-11T01:09:26;92538.25;;;9.22;74.98
52249;BME280;38541;48.130;8.378;2023-05-11T01:14:38;92530.91;;;9.29;74.69
52249;BME280;38541;48.130;8.378;2023-05-11T01:17:17;92530.91;;;9.29;74.81
52249;BME280;38541;48.130;8.378;2023-05-11T01:19:48;92533.78;;;9.27;74.61
52249;BME280;38541;48.130;8.378;2023-05-11T01:22:37;92531.97;;;9.28;74.73
52249;BME280;38541;48.130;8.378;2023-05-11T01:25:13;92534.56;;;9.28;75.26
52249;BME280;38541;48.130;8.378;2023-05-11T01:30:48;92532.53;;;9.40;74.92
52249;BME280;38541;48.130;8.378;2023-05-11T01:33:20;92527.75;;;9.32;74.49
52249;BME280;38541;48.130;8.378;2023-05-11T01:35:51;92528.56;;;9.38;74.98
52249;BME280;38541;48.130;8.378;2023-05-11T01:38:20;92526.19;;;9.36;74.54
52249;BME280;38541;48.130;8.378;2023-05-11T01:40:53;92532.47;;;9.30;74.54
52249;BME280;38541;48.130;8.378;2023-05-11T01:43:24;92529.09;;;9.35;74.92
52249;BME280;38541;48.130;8.378;2023-05-11T01:45:52;92534.63;;;9.38;75.14
52249;BME280;38541;48.130;8.378;2023-05-11T01:48:22;92537.75;;;9.40;75.00
52249;BME280;38541;48.130;8.378;2023-05-11T01:50:51;92528.84;;;9.41;74.66
52249;BME280;38541;48.130;8.378;2023-05-11T01:53:18;92531.72;;;9.40;74.77
52249;BME280;38541;48.130;8.378;2023-05-11T01:55:46;92541.97;;;9.47;74.92
52249;BME280;38541;48.130;8.378;2023-05-11T01:58:15;92536.47;;;9.48;74.64
52249;BME280;38541;48.130;8.378;2023-05-11T02:00:44;92533.03;;;9.48;74.86
52249;BME280;38541;48.130;8.378;2023-05-11T02:03:11;92539.88;;;9.49;74.84
52249;BME280;38541;48.130;8.378;2023-05-11T02:05:39;92541.16;;;9.46;75.40
52249;BME280;38541;48.130;8.378;2023-05-11T02:08:07;92539.88;;;9.49;75.23
52249;BME280;38541;48.130;8.378;2023-05-11T02:10:35;92541.44;;;9.50;75.45
52249;BME280;38541;48.130;8.378;2023-05-11T02:13:03;92544.06;;;9.50;75.06
52249;BME280;38541;48.130;8.378;2023-05-11T02:15:32;92539.63;;;9.50;75.14
52249;BME280;38541;48.130;8.378;2023-05-11T02:18:00;92542.25;;;9.50;75.23
52249;BME280;38541;48.130;8.378;2023-05-11T02:20:27;92541.97;;;9.52;75.03
52249;BME280;38541;48.130;8.378;2023-05-11T02:22:55;92538.81;;;9.55;74.53
52249;BME280;38541;48.130;8.378;2023-05-11T02:25:23;92543.56;;;9.58;74.89
52249;BME280;38541;48.130;8.378;2023-05-11T02:27:50;92540.91;;;9.53;75.30
52249;BME280;38541;48.130;8.378;2023-05-11T02:30:17;92543.53;;;9.53;75.73
52249;BME280;38541;48.130;8.378;2023-05-11T02:32:50;92540.13;;;9.52;75.90
52249;BME280;38541;48.130;8.378;2023-05-11T02:35:27;92537.00;;;9.50;76.14
52249;BME280;38541;48.130;8.378;2023-05-11T02:37:58;92541.16;;;9.46;76.35
52249;BME280;38541;48.130;8.378;2023-05-11T02:40:31;92534.09;;;9.47;76.56
52249;BME280;38541;48.130;8.378;2023-05-11T02:43:06;92538.00;;;9.44;76.47
52249;BME280;38541;48.130;8.378;2023-05-11T02:45:35;92536.44;;;9.43;76.61
52249;BME280;38541;48.130;8.378;2023-05-11T02:48:08;92537.25;;;9.44;77.01
52249;BME280;38541;48.130;8.378;2023-05-11T02:50:38;92540.91;;;9.42;77.06
52249;BME280;38541;48.130;8.378;2023-05-11T02:53:12;92540.63;;;9.44;77.22
52249;BME280;38541;48.130;8.378;2023-05-11T02:55:41;92535.66;;;9.42;77.07
52249;BME280;38541;48.130;8.378;2023-05-11T02:58:08;92535.38;;;9.44;77.55
52249;BME280;38541;48.130;8.378;2023-05-11T03:00:37;92534.09;;;9.47;77.52
52249;BME280;38541;48.130;8.378;2023-05-11T03:03:04;92531.47;;;9.47;77.14
52249;BME280;38541;48.130;8.378;2023-05-11T03:05:31;92532.53;;;9.51;77.00
52249;BME280;38541;48.130;8.378;2023-05-11T03:07:58;92533.84;;;9.48;76.88
52249;BME280;38541;48.130;8.378;2023-05-11T03:10:26;92525.69;;;9.45;77.50
52249;BME280;38541;48.130;8.378;2023-05-11T03:12:54;92525.19;;;9.53;77.44
52249;BME280;38541;48.130;8.378;2023-05-11T03:15:22;92523.59;;;9.52;77.11
52249;BME280;38541;48.130;8.378;2023-05-11T03:17:51;92520.47;;;9.50;77.17
52249;BME280;38541;48.130;8.378;2023-05-11T03:20:19;92518.88;;;9.49;76.72
52249;BME280;38541;48.130;8.378;2023-05-11T03:22:48;92520.47;;;9.50;76.84
52249;BME280;38541;48.130;8.378;2023-05-11T03:25:17;92514.69;;;9.53;76.83
52249;BME280;38541;48.130;8.378;2023-05-11T03:27:44;92514.44;;;9.49;76.74
52249;BME280;38541;48.130;8.378;2023-05-11T03:30:13;92506.28;;;9.51;77.00
52249;BME280;38541;48.130;8.378;2023-05-11T03:32:44;92512.34;;;9.51;77.02
52249;BME280;38541;48.130;8.378;2023-05-11T03:35:11;92507.09;;;9.51;77.32
52249;BME280;38541;48.130;8.378;2023-05-11T03:37:37;92511.53;;;9.51;77.63
52249;BME280;38541;48.130;8.378;2023-05-11T03:40:07;92512.59;;;9.50;77.68
52249;BME280;38541;48.130;8.378;2023-05-11T03:42:44;92508.66;;;9.52;77.39
52249;BME280;38541;48.130;8.378;2023-05-11T03:45:13;92506.28;;;9.51;77.08
52249;BME280;38541;48.130;8.378;2023-05-11T03:47:42;92510.53;;;9.57;77.32
52249;BME280;38541;48.130;8.378;2023-05-11T03:50:10;92511.00;;;9.54;76.51
52249;BME280;38541;48.130;8.378;2023-05-11T03:52:37;92495.81;;;9.51;76.45
52249;BME280;38541;48.130;8.378;2023-05-11T03:55:04;92501.06;;;9.46;76.06
52249;BME280;38541;48.130;8.378;2023-05-11T03:57:31;92501.06;;;9.46;76.67
52249;BME280;38541;48.130;8.378;2023-05-11T03:59:58;92496.06;;;9.44;76.40
52249;BME280;38541;48.130;8.378;2023-05-11T04:02:24;92500.50;;;9.33;75.78
52249;BME280;38541;48.130;8.378;2023-05-11T04:04:51;92498.94;;;9.22;76.48
52249;BME280;38541;48.130;8.378;2023-05-11T04:07:18;92501.03;;;9.20;76.18
52249;BME280;38541;48.130;8.378;2023-05-11T04:09:45;92498.59;;;9.08;76.15
52249;BME280;38541;48.130;8.378;2023-05-11T04:12:12;92490.47;;;8.94;76.84
52249;BME280;38541;48.130;8.378;2023-05-11T04:14:40;92494.69;;;9.05;77.67
52249;BME280;38541;48.130;8.378;2023-05-11T04:17:07;92498.59;;;9.08;77.55
52249;BME280;38541;48.130;8.378;2023-05-11T04:19:33;92495.22;;;9.07;77.56
52249;BME280;38541;48.130;8.378;2023-05-11T04:22:00;92495.22;;;9.12;77.13
52249;BME280;38541;48.130;8.378;2023-05-11T04:24:26;92493.91;;;9.10;77.09
52249;BME280;38541;48.130;8.378;2023-05-11T04:26:55;92489.97;;;9.12;77.03
52249;BME280;38541;48.130;8.378;2023-05-11T04:29:21;92498.13;;;9.16;77.10
52249;BME280;38541;48.130;8.378;2023-05-11T04:31:48;92494.72;;;9.21;77.18
52249;BME280;38541;48.130;8.378;2023-05-11T04:34:16;92503.38;;;9.21;77.10
52249;BME280;38541;48.130;8.378;2023-05-11T04:36:46;92502.06;;;9.24;77.04
52249;BME280;38541;48.130;8.378;2023-05-11T04:39:13;92501.53;;;9.22;77.05
52249;BME280;38541;48.130;8.378;2023-05-11T04:41:39;92497.59;;;9.24;76.95
52249;BME280;38541;48.130;8.378;2023-05-11T04:44:07;92496.31;;;9.27;77.10
52249;BME280;38541;48.130;8.378;2023-05-11T04:46:38;92506.78;;;9.27;77.59
52249;BME280;38541;48.130;8.378;2023-05-11T04:49:05;92507.31;;;9.29;76.65
52249;BME280;38541;48.130;8.378;2023-05-11T04:51:34;92503.94;;;9.39;76.84
52249;BME280;38541;48.130;8.378;2023-05-11T04:54:01;92510.47;;;9.36;76.48
52249;BME280;38541;48.130;8.378;2023-05-11T04:56:28;92501.06;;;9.46;76.04
52249;BME280;38541;48.130;8.378;2023-05-11T04:58:54;92502.88;;;9.40;75.99
52249;BME280;38541;48.130;8.378;2023-05-11T05:01:21;92493.72;;;9.42;76.39
52249;BME280;38541;48.130;8.378;2023-05-11T05:03:48;92502.88;;;9.45;76.12
52249;BME280;38541;48.130;8.378;2023-05-11T05:06:16;92497.63;;;9.45;76.13
52249;BME280;38541;48.130;8.378;2023-05-11T05:08:42;92494.50;;;9.48;75.41
52249;BME280;38541;48.130;8.378;2023-05-11T05:11:08;92489.50;;;9.41;76.37
52249;BME280;38541;48.130;8.378;2023-05-11T05:13:36;92494.78;;;9.57;76.70
52249;BME280;38541;48.130;8.378;2023-05-11T05:16:02;92495.53;;;9.47;75.56
52249;BME280;38541;48.130;8.378;2023-05-11T05:18:29;92496.88;;;9.60;75.85
52249;BME280;38541;48.130;8.378;2023-05-11T05:20:56;92500.03;;;9.57;74.74
52249;BME280;38541;48.130;8.378;2023-05-11T05:23:23;92503.16;;;9.54;75.55
52249;BME280;38541;48.130;8.378;2023-05-11T05:25:50;92496.34;;;9.58;75.04
52249;BME280;38541;48.130;8.378;2023-05-11T05:28:17;92503.69;;;9.61;74.85
52249;BME280;38541;48.130;8.378;2023-05-11T05:30:44;92505.78;;;9.75;74.28
52249;BME280;38541;48.130;8.378;2023-05-11T05:33:12;92504.72;;;9.76;74.63
52249;BME280;38541;48.130;8.378;2023-05-11T05:35:38;92504.22;;;9.84;74.42
52249;BME280;38541;48.130;8.378;2023-05-11T05:38:05;92500.56;;;9.95;74.00
52249;BME280;38541;48.130;8.378;2023-05-11T05:40:32;92498.41;;;10.08;73.63
52249;BME280;38541;48.130;8.378;2023-05-11T05:43:05;92506.81;;;10.10;73.45
52249;BME280;38541;48.130;8.378;2023-05-11T05:45:31;92506.28;;;10.18;73.18
52249;BME280;38541;48.130;8.378;2023-05-11T05:47:58;92507.09;;;10.24;72.71
52249;BME280;38541;48.130;8.378;2023-05-11T05:50:29;92510.47;;;10.30;72.82
52249;BME280;38541;48.130;8.378;2023-05-11T05:52:56;92517.81;;;10.27;72.38
52249;BME280;38541;48.130;8.378;2023-05-11T05:55:24;92512.03;;;10.36;72.67
52249;BME280;38541;48.130;8.378;2023-05-11T05:57:51;92519.38;;;10.39;72.36
52249;BME280;38541;48.130;8.378;2023-05-11T06:00:18;92516.25;;;10.37;72.05
52249;BME280;38541;48.130;8.378;2023-05-11T06:02:54;92512.34;;;10.24;71.20
52249;BME280;38541;48.130;8.378;2023-05-11T06:05:24;92514.16;;;10.18;71.91
52249;BME280;38541;48.130;8.378;2023-05-11T06:07:51;92514.16;;;10.18;71.78
52249;BME280;38541;48.130;8.378;2023-05-11T06:10:35;92513.13;;;10.19;71.52
52249;BME280;38541;48.130;8.378;2023-05-11T06:13:01;92511.53;;;10.23;71.24
52249;BME280;38541;48.130;8.378;2023-05-11T06:15:28;92519.13;;;10.30;71.29
52249;BME280;38541;48.130;8.378;2023-05-11T06:18:00;92523.34;;;10.31;71.37
52249;BME280;38541;48.130;8.378;2023-05-11T06:20:28;92519.94;;;10.25;70.97
52249;BME280;38541;48.130;8.378;2023-05-11T06:22:54;92520.44;;;10.27;71.41
52249;BME280;38541;48.130;8.378;2023-05-11T06:25:21;92514.13;;;10.39;71.17
52249;BME280;38541;48.130;8.378;2023-05-11T06:27:47;92520.19;;;10.45;71.66
52249;BME280;38541;48.130;8.378;2023-05-11T06:30:14;92524.13;;;10.47;71.36
52249;BME280;38541;48.130;8.378;2023-05-11T06:32:41;92525.69;;;10.38;70.88
52249;BME280;38541;48.130;8.378;2023-05-11T06:35:08;92520.44;;;10.53;71.66
52249;BME280;38541;48.130;8.378;2023-05-11T06:37:35;92527.00;;;10.51;70.79
52249;BME280;38541;48.130;8.378;2023-05-11T06:40:02;92519.16;;;10.46;70.46
52249;BME280;38541;48.130;8.378;2023-05-11T06:42:29;92519.63;;;10.53;71.09
52249;BME280;38541;48.130;8.378;2023-05-11T06:45:04;92522.50;;;10.62;70.64
52249;BME280;38541;48.130;8.378;2023-05-11T06:47:32;92523.34;;;10.41;70.13
52249;BME280;38541;48.130;8.378;2023-05-11T06:49:58;92517.03;;;10.32;71.06
52249;BME280;38541;48.130;8.378;2023-05-11T06:52:25;92521.22;;;10.23;71.29
52249;BME280;38541;48.130;8.378;2023-05-11T06:54:51;92514.16;;;10.08;72.50
52249;BME280;38541;48.130;8.378;2023-05-11T06:57:18;92523.38;;;10.05;72.76
52249;BME280;38541;48.130;8.378;2023-05-11T06:59:44;92510.78;;;10.07;72.58
52249;BME280;38541;48.130;8.378;2023-05-11T07:02:11;92517.34;;;10.15;72.80
52249;BME280;38541;48.130;8.378;2023-05-11T07:04:37;92518.91;;;10.16;73.01
52249;BME280;38541;48.130;8.378;2023-05-11T07:07:04;92518.63;;;10.28;73.51
52249;BME280;38541;48.130;8.378;2023-05-11T07:09:30;92521.50;;;10.37;73.79
52249;BME280;38541;48.130;8.378;2023-05-11T07:11:57;92527.03;;;10.25;72.96
52249;BME280;38541;48.130;8.378;2023-05-11T07:14:23;92529.13;;;10.18;73.16
52249;BME280;38541;48.130;8.378;2023-05-11T07:16:50;92532.53;;;10.23;73.48
52249;BME280;38541;48.130;8.378;2023-05-11T07:19:18;92528.34;;;10.17;72.65
52249;BME280;38541;48.130;8.378;2023-05-11T07:21:44;92532.56;;;9.97;73.17
52249;BME280;38541;48.130;8.378;2023-05-11T07:24:11;92535.69;;;9.84;73.77
52249;BME280;38541;48.130;8.378;2023-05-11T07:26:38;92532.03;;;9.80;74.64
52249;BME280;38541;48.130;8.378;2023-05-11T07:29:04;92534.13;;;9.88;75.92
52249;BME280;38541;48.130;8.378;2023-05-11T07:31:31;92522.56;;;9.94;75.68
52249;BME280;38541;48.130;8.378;2023-05-11T07:33:58;92529.94;;;9.77;74.60
52249;BME280;38541;48.130;8.378;2023-05-11T07:36:25;92532.56;;;9.77;74.29
52249;BME280;38541;48.130;8.378;2023-05-11T07:38:51;92529.94;;;9.82;74.87
52249;BME280;38541;48.130;8.378;2023-05-11T07:41:18;92528.88;;;9.93;74.56
52249;BME280;38541;48.130;8.378;2023-05-11T07:43:46;92525.72;;;10.12;74.55
52249;BME280;38541;48.130;8.378;2023-05-11T07:46:12;92531.22;;;10.31;73.71
52249;BME280;38541;48.130;8.378;2023-05-11T07:48:39;92526.50;;;10.49;73.37
52249;BME280;38541;48.130;8.378;2023-05-11T07:51:05;92530.13;;;10.63;73.18
52249;BME280;38541;48.130;8.378;2023-05-11T07:53:33;92524.88;;;10.63;72.15
52249;BME280;38541;48.130;8.378;2023-05-11T07:56:00;92532.75;;;10.68;71.34
52249;BME280;38541;48.130;8.378;2023-05-11T07:58:26;92528.78;;;10.76;72.43
52249;BME280;38541;48.130;8.378;2023-05-11T08:00:53;92527.00;;;10.61;71.31
52249;BME280;38541;48.130;8.378;2023-05-11T08:03:20;92529.81;;;10.80;71.47
52249;BME280;38541;48.130;8.378;2023-05-11T08:05:47;92520.03;;;10.91;70.83
52249;BME280;38541;48.130;8.378;2023-05-11T08:08:14;92526.00;;;11.12;69.69
52249;BME280;38541;48.130;8.378;2023-05-11T08:10:41;92523.19;;;11.49;71.14
52249;BME280;38541;48.130;8.378;2023-05-11T08:13:07;92525.19;;;11.67;68.32
52249;BME280;38541;48.130;8.378;2023-05-11T08:15:34;92523.31;;;11.68;68.19
52249;BME280;38541;48.130;8.378;2023-05-11T08:18:00;92522.00;;;11.70;67.29
52249;BME280;38541;48.130;8.378;2023-05-11T08:20:28;92515.16;;;11.64;68.37
52249;BME280;38541;48.130;8.378;2023-05-11T08:22:54;92517.19;;;11.78;67.87
52249;BME280;38541;48.130;8.378;2023-05-11T08:25:21;92520.88;;;11.77;67.68
52249;BME280;38541;48.130;8.378;2023-05-11T08:27:47;92520.22;;;11.95;68.25
52249;BME280;38541;48.130;8.378;2023-05-11T08:30:14;92517.53;;;11.66;66.64
52249;BME280;38541;48.130;8.378;2023-05-11T08:32:41;92520.50;;;11.54;67.41
52249;BME280;38541;48.130;8.378;2023-05-11T08:35:11;92519.41;;;11.60;66.36
52249;BME280;38541;48.130;8.378;2023-05-11T08:37:38;92521.88;;;11.86;67.12
52249;BME280;38541;48.130;8.378;2023-05-11T08:40:04;92523.66;;;11.91;66.04
52249;BME280;38541;48.130;8.378;2023-05-11T08:42:38;92520.25;;;11.90;66.02
52249;BME280;38541;48.130;8.378;2023-05-11T08:45:06;92525.19;;;12.02;66.53
52249;BME280;38541;48.130;8.378;2023-05-11T08:47:33;92524.63;;;11.70;64.60
52249;BME280;38541;48.130;8.378;2023-05-11T08:49:59;92525.19;;;11.62;67.32
52249;BME280;38541;48.130;8.378;2023-05-11T08:52:26;92514.69;;;11.57;66.99
52249;BME280;38541;48.130;8.378;2023-05-11T08:54:55;92518.22;;;11.42;66.89
52249;BME280;38541;48.130;8.378;2023-05-11T08:57:21;92520.03;;;11.47;67.77
52249;BME280;38541;48.130;8.378;2023-05-11T08:59:50;92523.06;;;11.69;67.74
52249;BME280;38541;48.130;8.378;2023-05-11T09:02:18;92517.94;;;11.83;67.13
52249;BME280;38541;48.130;8.378;2023-05-11T09:04:45;92513.53;;;11.74;65.94
52249;BME280;38541;48.130;8.378;2023-05-11T09:07:15;92512.88;;;11.52;66.84
52249;BME280;38541;48.130;8.378;2023-05-11T09:09:44;92517.44;;;11.41;67.22
52249;BME280;38541;48.130;8.378;2023-05-11T09:12:11;92516.72;;;11.25;67.58
52249;BME280;38541;48.130;8.378;2023-05-11T09:14:37;92528.31;;;11.24;67.35
52249;BME280;38541;48.130;8.378;2023-05-11T09:17:04;92523.97;;;10.99;66.86
52249;BME280;38541;48.130;8.378;2023-05-11T09:19:30;92521.59;;;11.03;66.09
52249;BME280;38541;48.130;8.378;2023-05-11T09:22:00;92525.16;;;11.22;66.50
52249;BME280;38541;48.130;8.378;2023-05-11T09:24:27;92524.75;;;11.50;65.84
52249;BME280;38541;48.130;8.378;2023-05-11T09:27:07;92523.66;;;11.56;63.59
52249;BME280;38541;48.130;8.378;2023-05-11T09:29:36;92523.59;;;11.66;63.07
52249;BME280;38541;48.130;8.378;2023-05-11T09:32:03;92520.69;;;11.68;64.38
52249;BME280;38541;48.130;8.378;2023-05-11T09:34:30;92515.13;;;11.75;64.62
52249;BME280;38541;48.130;8.378;2023-05-11T09:36:56;92514.69;;;11.97;63.29
52249;BME280;38541;48.130;8.378;2023-05-11T09:39:34;92514.72;;;12.26;64.64
52249;BME280;38541;48.130;8.378;2023-05-11T09:42:14;92516.50;;;12.31;65.11
52249;BME280;38541;48.130;8.378;2023-05-11T09:44:41;92517.66;;;12.49;63.83
52249;BME280;38541;48.130;8.378;2023-05-11T09:47:15;92512.41;;;12.74;63.30
52249;BME280;38541;48.130;8.378;2023-05-11T09:49:44;92514.53;;;12.96;63.04
52249;BME280;38541;48.130;8.378;2023-05-11T09:52:16;92513.47;;;12.73;61.63
52249;BME280;38541;48.130;8.378;2023-05-11T09:54:45;92510.81;;;12.97;62.03
52249;BME280;38541;48.130;8.378;2023-05-11T09:57:28;92508.41;;;13.01;62.64
52249;BME280;38541;48.130;8.378;2023-05-11T09:59:57;92514.63;;;13.10;61.24
52249;BME280;38541;48.130;8.378;2023-05-11T10:02:29;92512.00;;;13.29;60.35
52249;BME280;38541;48.130;8.378;2023-05-11T10:04:57;92501.19;;;13.31;61.94
52249;BME280;38541;48.130;8.378;2023-05-11T10:09:59;92502.88;;;13.02;60.79
52249;BME280;38541;48.130;8.378;2023-05-11T10:12:28;92505.69;;;12.87;60.97
52249;BME280;38541;48.130;8.378;2023-05-11T10:15:06;92508.97;;;12.73;62.13
52249;BME280;38541;48.130;8.378;2023-05-11T10:17:34;92508.59;;;12.61;61.69
52249;BME280;38541;48.130;8.378;2023-05-11T10:20:02;92507.88;;;12.55;63.03
52249;BME280;38541;48.130;8.378;2023-05-11T10:22:30;92503.44;;;12.50;63.69
52249;BME280;38541;48.130;8.378;2023-05-11T10:24:57;92506.69;;;12.42;63.28
52249;BME280;38541;48.130;8.378;2023-05-11T10:27:24;92501.91;;;12.44;63.62
52249;BME280;38541;48.130;8.378;2023-05-11T10:29:51;92504.66;;;12.58;63.37
52249;BME280;38541;48.130;8.378;2023-05-11T10:32:19;92503.81;;;12.38;62.60
52249;BME280;38541;48.130;8.378;2023-05-11T10:34:46;92503.00;;;12.43;63.57
52249;BME280;38541;48.130;8.378;2023-05-11T10:37:14;92501.06;;;12.49;64.23
52249;BME280;38541;48.130;8.378;2023-05-11T10:39:41;92499.91;;;12.60;62.50
52249;BME280;38541;48.130;8.378;2023-05-11T10:42:17;92490.03;;;12.71;62.02
52249;BME280;38541;48.130;8.378;2023-05-11T10:45:13;92498.69;;;12.96;62.61
52249;BME280;38541;48.130;8.378;2023-05-11T10:51:10;92493.63;;;13.24;61.33
52249;BME280;38541;48.130;8.378;2023-05-11T11:01:49;92482.38;;;13.76;59.86
52249;BME280;38541;48.130;8.378;2023-05-11T11:04:24;92475.97;;;13.96;58.31
52249;BME280;38541;48.130;8.378;2023-05-11T11:07:05;92477.19;;;14.18;56.60
52249;BME280;38541;48.130;8.378;2023-05-11T11:12:21;92475.09;;;15.18;54.69
52249;BME280;38541;48.130;8.378;2023-05-11T11:14:58;92472.34;;;15.09;53.60
52249;BME280;38541;48.130;8.378;2023-05-11T11:17:29;92470.31;;;15.43;55.20
52249;BME280;38541;48.130;8.378;2023-05-11T11:19:58;92470.69;;;15.50;52.88
52249;BME280;38541;48.130;8.378;2023-05-11T11:25:10;92470.00;;;15.07;53.27
52249;BME280;38541;48.130;8.378;2023-05-11T11:32:48;92472.50;;;14.29;52.38
52249;BME280;38541;48.130;8.378;2023-05-11T11:38:17;92463.72;;;15.03;52.90
52249;BME280;38541;48.130;8.378;2023-05-11T11:40:48;92470.56;;;15.32;52.78
52249;BME280;38541;48.130;8.378;2023-05-11T11:43:19;92458.16;;;15.05;52.19
52249;BME280;38541;48.130;8.378;2023-05-11T11:45:50;92458.84;;;14.96;53.48
52249;BME280;38541;48.130;8.378;2023-05-11T11:50:48;92455.91;;;15.49;51.75
52249;BME280;38541;48.130;8.378;2023-05-11T11:56:06;92446.34;;;15.62;51.18
52249;BME280;38541;48.130;8.378;2023-05-11T12:01:16;92440.97;;;15.76;50.25
52249;BME280;38541;48.130;8.378;2023-05-11T12:03:45;92437.28;;;15.86;52.26
52249;BME280;38541;48.130;8.378;2023-05-11T12:06:12;92431.66;;;16.01;49.29
52249;BME280;38541;48.130;8.378;2023-05-11T12:08:41;92436.69;;;16.43;47.62
52249;BME280;38541;48.130;8.378;2023-05-11T12:11:08;92432.41;;;17.23;46.81
52249;BME280;38541;48.130;8.378;2023-05-11T12:13:34;92429.59;;;17.72;47.64
52249;BME280;38541;48.130;8.378;2023-05-11T12:16:14;92432.88;;;17.43;46.77
52249;BME280;38541;48.130;8.378;2023-05-11T12:18:50;92431.13;;;17.20;45.14
52249;BME280;38541;48.130;8.378;2023-05-11T12:21:20;92429.75;;;17.40;46.81
52249;BME280;38541;48.130;8.378;2023-05-11T12:23:57;92433.72;;;16.94;45.09
52249;BME280;38541;48.130;8.378;2023-05-11T12:26:26;92436.19;;;16.73;46.26
52249;BME280;38541;48.130;8.378;2023-05-11T12:29:08;92429.16;;;16.77;47.85
52249;BME280;38541;48.130;8.378;2023-05-11T12:31:40;92430.13;;;16.40;49.00
52249;BME280;38541;48.130;8.378;2023-05-11T12:34:15;92431.13;;;16.22;48.68
52249;BME280;38541;48.130;8.378;2023-05-11T12:36:43;92437.25;;;15.77;48.72
52249;BME280;38541;48.130;8.378;2023-05-11T12:39:24;92433.75;;;15.67;50.96
52249;BME280;38541;48.130;8.378;2023-05-11T12:41:53;92433.09;;;15.62;50.09
52249;BME280;38541;48.130;8.378;2023-05-11T12:44:21;92440.56;;;15.23;51.72
52249;BME280;38541;48.130;8.378;2023-05-11T12:46:49;92438.84;;;15.04;53.12
52249;BME280;38541;48.130;8.378;2023-05-11T12:49:17;92438.28;;;14.79;52.64
52249;BME280;38541;48.130;8.378;2023-05-11T12:54:33;92441.88;;;13.80;55.49
52249;BME280;38541;48.130;8.378;2023-05-11T12:57:01;92443.25;;;13.78;56.62
52249;BME280;38541;48.130;8.378;2023-05-11T12:59:37;92451.09;;;13.64;58.16
52249;BME280;38541;48.130;8.378;2023-05-11T13:02:08;92451.47;;;13.38;60.69
52249;BME280;38541;48.130;8.378;2023-05-11T13:04:37;92452.03;;;13.35;62.20
52249;BME280;38541;48.130;8.378;2023-05-11T13:07:03;92442.94;;;13.46;63.41
52249;BME280;38541;48.130;8.378;2023-05-11T13:09:30;92453.19;;;13.48;63.28
52249;BME280;38541;48.130;8.378;2023-05-11T13:14:32;92446.25;;;13.13;63.84
52249;BME280;38541;48.130;8.378;2023-05-11T13:16:59;92448.63;;;13.15;63.27
52249;BME280;38541;48.130;8.378;2023-05-11T13:19:28;92439.28;;;13.23;64.97
52249;BME280;38541;48.130;8.378;2023-05-11T13:21:54;92439.84;;;13.39;65.62
52249;BME280;38541;48.130;8.378;2023-05-11T13:24:24;92435.66;;;13.57;65.47
52249;BME280;38541;48.130;8.378;2023-05-11T13:26:52;92434.16;;;13.51;64.91
52249;BME280;38541;48.130;8.378;2023-05-11T13:29:19;92436.47;;;13.72;64.98
52249;BME280;38541;48.130;8.378;2023-05-11T13:31:48;92425.88;;;13.91;64.76
52249;BME280;38541;48.130;8.378;2023-05-11T13:34:15;92425.16;;;14.60;64.57
52249;BME280;38541;48.130;8.378;2023-05-11T13:36:42;92431.72;;;14.63;60.03
52249;BME280;38541;48.130;8.378;2023-05-11T13:39:08;92431.97;;;15.03;59.51
52249;BME280;38541;48.130;8.378;2023-05-11T13:41:35;92429.00;;;15.19;62.44
52249;BME280;38541;48.130;8.378;2023-05-11T13:44:02;92429.00;;;14.82;59.17
52249;BME280;38541;48.130;8.378;2023-05-11T13:46:28;92434.84;;;14.37;58.70
52249;BME280;38541;48.130;8.378;2023-05-11T13:48:55;92425.56;;;13.92;60.64
52249;BME280;38541;48.130;8.378;2023-05-11T13:51:22;92429.94;;;13.50;60.50
52249;BME280;38541;48.130;8.378;2023-05-11T13:53:48;92436.34;;;13.24;63.39
52249;BME280;38541;48.130;8.378;2023-05-11T13:56:14;92440.97;;;13.13;63.57
52249;BME280;38541;48.130;8.378;2023-05-11T13:58:42;92436.44;;;13.00;64.75